Meadowcreek, Virginia
Current Conditions -  °F | °C
As of 12:15 PM on Sunday 23 Nov 2014 (Local Time) from KHLX Reporting Station
Light Rain Light Rain  
Wind Chill: 40°   Ceiling: 900
Heat Index: 45°   Visibility: 10mi
Dew Point: 36°   Wind: 8mph
Humidity: 71%   Direction: 180°S
Pressure: 30.1"   Gusts: NA
Location:  36.6484°N, 80.9203°W
Report Text: KHLX 231715Z AUTO 18007KT 10SM -RA OVC009 07/02 A3010 RMK AO2 T00710022
Loading
Personal Weather Stations






























Interactive Weather Map New forecast layout! Learn more

10-Day Weather Forecast

Advertisements
Track Severe Weather on mobile